createdAt,value
2023-03-14T00:00:01.334Z,1.27
2023-03-14T00:02:28.526Z,0.98
2023-03-14T00:04:56.513Z,1.27
2023-03-14T00:07:25.414Z,0.90
2023-03-14T00:09:52.275Z,1.05
2023-03-14T00:12:18.817Z,0.70
2023-03-14T00:14:46.490Z,0.73
2023-03-14T00:17:14.864Z,1.00
2023-03-14T00:19:41.353Z,0.70
2023-03-14T00:22:11.881Z,0.75
2023-03-14T00:24:38.380Z,0.68
2023-03-14T00:27:04.914Z,0.90
2023-03-14T00:29:31.460Z,0.60
2023-03-14T00:31:58.003Z,0.50
2023-03-14T00:34:24.486Z,0.65
2023-03-14T00:36:50.973Z,0.70
2023-03-14T00:39:17.645Z,0.60
2023-03-14T00:41:44.151Z,0.70
2023-03-14T00:44:10.757Z,0.50
2023-03-14T00:46:39.572Z,0.50
2023-03-14T00:49:06.836Z,0.43
2023-03-14T00:51:33.320Z,0.95
2023-03-14T00:54:00.509Z,0.60
2023-03-14T00:56:28.487Z,0.30
2023-03-14T00:58:56.631Z,0.30
2023-03-14T01:01:23.627Z,0.30
2023-03-14T01:03:54.747Z,0.30
2023-03-14T01:06:26.009Z,0.20
2023-03-14T01:08:52.904Z,0.35
2023-03-14T01:11:30.893Z,0.20
2023-03-14T01:13:58.627Z,0.30
2023-03-14T01:16:29.764Z,0.30
2023-03-14T01:18:56.412Z,0.20
2023-03-14T01:21:22.973Z,0.15
2023-03-14T01:23:49.971Z,0.20
2023-03-14T01:26:19.850Z,0.20
2023-03-14T01:28:46.853Z,0.20
2023-03-14T01:31:14.026Z,0.22
2023-03-14T01:33:41.050Z,0.30
2023-03-14T01:36:09.791Z,0.30
2023-03-14T01:38:37.637Z,0.28
2023-03-14T01:41:05.257Z,0.20
2023-03-14T01:43:31.817Z,0.10
2023-03-14T01:46:07.898Z,0.20
2023-03-14T01:48:41.662Z,0.30
2023-03-14T01:51:10.150Z,0.20
2023-03-14T01:53:37.561Z,0.20
2023-03-14T01:56:04.886Z,0.20
2023-03-14T01:58:33.397Z,0.20
2023-03-14T02:01:02.487Z,0.20
2023-03-14T02:03:30.299Z,0.20
2023-03-14T02:06:00.635Z,0.20
2023-03-14T02:08:28.504Z,0.20
2023-03-14T02:10:59.736Z,0.30
2023-03-14T02:13:43.143Z,0.30
2023-03-14T02:16:25.827Z,0.20
2023-03-14T02:19:21.313Z,0.20
2023-03-14T02:22:17.460Z,0.40
2023-03-14T02:24:52.347Z,0.25
2023-03-14T02:27:20.994Z,0.40
2023-03-14T02:29:47.848Z,0.40
2023-03-14T02:32:15.692Z,0.32
2023-03-14T02:34:43.502Z,0.30
2023-03-14T02:37:11.084Z,0.35
2023-03-14T02:39:42.812Z,0.20
2023-03-14T02:42:10.166Z,0.30
2023-03-14T02:44:36.904Z,0.30
2023-03-14T02:47:05.202Z,0.50
2023-03-14T02:49:33.022Z,0.20
2023-03-14T02:51:59.651Z,0.57
2023-03-14T02:54:26.213Z,0.30
2023-03-14T02:56:53.173Z,0.40
2023-03-14T02:59:22.429Z,0.30
2023-03-14T03:01:52.855Z,0.30
2023-03-14T03:04:19.412Z,0.40
2023-03-14T03:06:46.973Z,0.45
2023-03-14T03:09:14.404Z,0.30
2023-03-14T03:11:41.528Z,0.30
2023-03-14T03:14:11.606Z,0.40
2023-03-14T03:16:38.878Z,0.28
2023-03-14T03:19:05.412Z,0.30
2023-03-14T03:21:32.009Z,0.30
2023-03-14T03:24:00.111Z,0.30
2023-03-14T03:26:26.759Z,0.40
2023-03-14T03:28:53.538Z,0.32
2023-03-14T03:31:20.854Z,0.40
2023-03-14T03:33:47.532Z,0.30
2023-03-14T03:36:16.635Z,0.40
2023-03-14T03:38:43.756Z,0.30
2023-03-14T03:41:10.329Z,0.40
2023-03-14T03:43:36.956Z,0.32
2023-03-14T03:46:09.151Z,0.32
2023-03-14T03:48:36.793Z,0.47
2023-03-14T03:51:05.241Z,0.45
2023-03-14T03:53:33.943Z,0.40
2023-03-14T03:56:04.668Z,0.45
2023-03-14T03:58:31.214Z,0.30
2023-03-14T04:00:57.722Z,0.80
2023-03-14T04:03:24.521Z,0.50
2023-03-14T04:06:01.550Z,0.60
2023-03-14T04:08:29.393Z,0.30
2023-03-14T04:10:59.508Z,0.40
2023-03-14T04:13:44.708Z,0.50
2023-03-14T04:16:16.709Z,0.30
2023-03-14T04:18:43.757Z,0.47
2023-03-14T04:21:10.591Z,0.63
2023-03-14T04:23:45.087Z,0.70
2023-03-14T04:26:11.658Z,0.52
2023-03-14T04:28:39.931Z,0.60
2023-03-14T04:31:10.470Z,0.60
2023-03-14T04:33:38.170Z,0.57
2023-03-14T04:36:05.908Z,0.50
2023-03-14T04:38:32.901Z,0.57
2023-03-14T04:41:00.538Z,0.60
2023-03-14T04:43:31.510Z,0.70
2023-03-14T04:46:05.740Z,0.50
2023-03-14T04:48:32.457Z,0.60
2023-03-14T04:50:59.909Z,0.70
2023-03-14T04:53:32.541Z,1.27
2023-03-14T04:56:00.326Z,0.60
2023-03-14T04:58:33.976Z,0.57
2023-03-14T05:01:05.190Z,0.73
2023-03-14T05:06:18.376Z,0.82
2023-03-14T05:08:45.972Z,0.70
2023-03-14T05:11:21.764Z,0.60
2023-03-14T05:14:07.140Z,0.60
2023-03-14T05:16:58.912Z,0.68
2023-03-14T05:19:36.254Z,0.85
2023-03-14T05:22:38.981Z,0.63
2023-03-14T05:25:37.808Z,0.90
2023-03-14T05:28:14.014Z,0.80
2023-03-14T05:31:07.187Z,0.90
2023-03-14T05:34:03.014Z,0.88
2023-03-14T05:36:35.485Z,0.70
2023-03-14T05:39:22.619Z,0.60
2023-03-14T05:42:11.956Z,0.80
2023-03-14T05:45:05.156Z,0.85
2023-03-14T05:47:52.561Z,0.88
2023-03-14T05:50:42.325Z,0.90
2023-03-14T05:53:32.602Z,0.68
2023-03-14T05:56:14.224Z,0.68
2023-03-14T05:59:14.716Z,0.80
2023-03-14T06:02:01.592Z,1.00
2023-03-14T06:04:37.327Z,0.80
2023-03-14T06:07:19.250Z,0.60
2023-03-14T06:09:46.287Z,0.80
2023-03-14T06:12:15.556Z,0.80
2023-03-14T06:14:43.873Z,0.90
2023-03-14T06:17:11.033Z,0.60
2023-03-14T06:19:46.965Z,0.88
2023-03-14T06:22:14.455Z,1.00
2023-03-14T06:24:41.227Z,0.68
2023-03-14T06:27:07.921Z,0.60
2023-03-14T06:29:34.560Z,0.70
2023-03-14T06:32:02.328Z,0.82
2023-03-14T06:34:28.929Z,0.90
2023-03-14T06:36:55.596Z,0.90
2023-03-14T06:39:22.108Z,0.70
2023-03-14T06:41:54.483Z,0.90
2023-03-14T06:44:21.072Z,0.80
2023-03-14T06:46:48.006Z,0.90
2023-03-14T06:49:14.480Z,1.02
2023-03-14T06:51:41.853Z,0.90
2023-03-14T06:54:10.291Z,0.93
2023-03-14T06:56:36.988Z,0.77
2023-03-14T06:59:03.548Z,0.60
2023-03-14T07:01:33.986Z,0.50
2023-03-14T07:04:10.586Z,0.63
2023-03-14T07:06:40.669Z,0.63
2023-03-14T07:09:07.470Z,0.60
2023-03-14T07:11:37.708Z,0.73
2023-03-14T07:14:04.733Z,0.50
2023-03-14T07:16:33.995Z,0.70
2023-03-14T07:19:01.273Z,0.60
2023-03-14T07:21:27.804Z,0.50
2023-03-14T07:23:54.882Z,0.70
2023-03-14T07:26:21.845Z,0.98
2023-03-14T07:28:51.091Z,0.73
2023-03-14T07:31:19.421Z,0.85
2023-03-14T07:33:46.768Z,0.90
2023-03-14T07:36:13.322Z,0.85
2023-03-14T07:38:43.509Z,0.85
2023-03-14T07:41:10.412Z,1.95
2023-03-14T07:43:43.050Z,0.73
2023-03-14T07:46:09.752Z,0.60
2023-03-14T07:48:36.292Z,0.70
2023-03-14T07:51:02.823Z,0.52
2023-03-14T07:53:29.468Z,0.80
2023-03-14T07:55:56.076Z,1.23
2023-03-14T07:58:23.127Z,0.70
2023-03-14T08:00:50.102Z,0.60
2023-03-14T08:03:20.139Z,0.80
2023-03-14T08:05:50.342Z,0.82
2023-03-14T08:08:17.306Z,0.60
2023-03-14T08:10:43.988Z,0.90
2023-03-14T08:13:11.251Z,0.85
2023-03-14T08:15:38.065Z,0.60
2023-03-14T08:18:05.224Z,0.68
2023-03-14T08:20:31.991Z,0.57
2023-03-14T08:22:58.986Z,0.77
2023-03-14T08:25:25.861Z,0.80
2023-03-14T08:27:52.443Z,0.77
2023-03-14T08:30:19.729Z,0.70
2023-03-14T08:32:46.348Z,0.60
2023-03-14T08:35:13.022Z,0.85
2023-03-14T08:37:39.643Z,1.00
2023-03-14T08:40:10.854Z,0.57
2023-03-14T08:42:38.316Z,0.68
2023-03-14T08:45:05.144Z,0.70
2023-03-14T08:47:31.772Z,0.80
2023-03-14T08:49:58.512Z,0.50
2023-03-14T08:52:25.238Z,0.60
2023-03-14T08:54:51.747Z,0.35
2023-03-14T08:57:18.347Z,0.40
2023-03-14T08:59:44.802Z,0.60
2023-03-14T09:02:13.524Z,0.63
2023-03-14T09:04:40.424Z,0.50
2023-03-14T09:07:07.162Z,0.57
2023-03-14T09:09:33.837Z,0.73
2023-03-14T09:12:00.508Z,0.55
2023-03-14T09:14:27.186Z,0.50
2023-03-14T09:16:54.186Z,0.80
2023-03-14T09:19:21.096Z,0.50
2023-03-14T09:21:47.573Z,0.45
2023-03-14T09:24:14.209Z,0.80
2023-03-14T09:26:41.079Z,0.45
2023-03-14T09:29:08.124Z,0.52
2023-03-14T09:31:34.867Z,0.50
2023-03-14T09:34:01.355Z,0.88
2023-03-14T09:36:27.966Z,0.65
2023-03-14T09:38:54.512Z,0.50
2023-03-14T09:41:21.032Z,0.70
2023-03-14T09:43:49.392Z,0.63
2023-03-14T09:46:16.413Z,0.73
2023-03-14T09:48:44.139Z,0.95
2023-03-14T09:51:15.357Z,1.15
2023-03-14T09:53:43.755Z,0.60
2023-03-14T09:56:15.186Z,0.57
2023-03-14T09:58:43.350Z,0.70
2023-03-14T10:01:11.995Z,0.70
2023-03-14T10:03:38.644Z,0.50
2023-03-14T10:06:12.018Z,0.55
2023-03-14T10:08:42.399Z,0.50
2023-03-14T10:11:15.354Z,0.43
2023-03-14T10:13:49.919Z,0.50
2023-03-14T10:16:16.636Z,0.50
2023-03-14T10:18:46.748Z,0.38
2023-03-14T10:21:26.894Z,0.43
2023-03-14T10:23:53.509Z,0.90
2023-03-14T10:26:25.142Z,0.45
2023-03-14T10:29:01.890Z,0.65
2023-03-14T10:31:28.585Z,0.73
2023-03-14T10:33:59.576Z,0.68
2023-03-14T10:36:29.354Z,0.40
2023-03-14T10:39:05.668Z,0.60
2023-03-14T10:41:32.662Z,0.70
2023-03-14T10:44:00.104Z,0.65
2023-03-14T10:46:27.521Z,0.63
2023-03-14T10:51:39.851Z,0.47
2023-03-14T10:54:20.293Z,0.40
2023-03-14T10:56:56.725Z,0.40
2023-03-14T10:59:23.352Z,0.40
2023-03-14T11:02:08.192Z,0.57
2023-03-14T11:04:46.902Z,0.40
2023-03-14T11:07:13.438Z,0.50
2023-03-14T11:09:53.425Z,0.50
2023-03-14T11:12:33.153Z,0.60
2023-03-14T11:15:02.979Z,0.55
2023-03-14T11:17:42.542Z,0.40
2023-03-14T11:20:10.192Z,0.80
2023-03-14T11:22:42.132Z,0.60
2023-03-14T11:25:08.863Z,0.40
2023-03-14T11:27:40.564Z,0.45
2023-03-14T11:30:16.272Z,0.40
2023-03-14T11:32:47.313Z,0.40
2023-03-14T11:35:24.505Z,0.45
2023-03-14T11:37:57.022Z,0.70
2023-03-14T11:40:27.044Z,0.30
2023-03-14T11:43:08.922Z,0.40
2023-03-14T11:45:37.210Z,0.50
2023-03-14T11:48:33.234Z,0.30
2023-03-14T11:51:03.205Z,0.30
2023-03-14T11:53:29.642Z,0.30
2023-03-14T11:55:56.260Z,0.25
2023-03-14T11:58:31.952Z,0.30
2023-03-14T12:01:00.455Z,0.40
2023-03-14T12:03:36.477Z,0.30
2023-03-14T12:06:22.241Z,0.30
2023-03-14T12:11:26.822Z,0.30
2023-03-14T12:13:54.104Z,0.30
2023-03-14T12:16:26.469Z,0.20
2023-03-14T12:18:53.664Z,0.50
2023-03-14T12:21:20.875Z,0.30
2023-03-14T12:23:51.986Z,0.25
2023-03-14T12:26:18.878Z,0.30
2023-03-14T12:28:53.302Z,0.40
2023-03-14T12:31:32.503Z,0.30
2023-03-14T12:34:25.008Z,0.50
2023-03-14T12:37:00.730Z,0.47
2023-03-14T12:39:27.397Z,0.47
2023-03-14T12:42:00.550Z,0.20
2023-03-14T12:44:29.870Z,0.20
2023-03-14T12:47:15.324Z,0.47
2023-03-14T12:49:42.017Z,0.30
2023-03-14T12:52:15.422Z,0.20
2023-03-14T12:54:45.109Z,0.43
2023-03-14T12:57:30.025Z,0.30
2023-03-14T13:00:00.512Z,0.30
2023-03-14T13:02:28.845Z,0.40
2023-03-14T13:05:01.701Z,0.40
2023-03-14T13:07:45.236Z,0.40
2023-03-14T13:10:12.126Z,0.30
2023-03-14T13:12:45.124Z,0.40
2023-03-14T13:15:24.777Z,0.10
2023-03-14T13:17:53.009Z,0.30
2023-03-14T13:20:23.906Z,0.40
2023-03-14T13:22:53.562Z,0.40
2023-03-14T13:25:22.089Z,0.30
2023-03-14T13:27:48.984Z,0.30
2023-03-14T13:30:21.449Z,0.40
2023-03-14T13:32:48.774Z,0.30
2023-03-14T13:35:17.070Z,0.50
2023-03-14T13:37:43.737Z,0.30
2023-03-14T13:40:19.407Z,0.28
2023-03-14T13:42:46.242Z,0.40
2023-03-14T13:45:15.021Z,0.40
2023-03-14T13:47:44.041Z,0.38
2023-03-14T13:50:15.470Z,0.32
2023-03-14T13:52:42.036Z,0.20
2023-03-14T13:55:16.531Z,0.50
2023-03-14T13:57:44.659Z,0.67
2023-03-14T14:00:22.266Z,0.40
2023-03-14T14:02:49.155Z,0.40
2023-03-14T14:05:16.122Z,0.30
2023-03-14T14:07:44.808Z,0.28
2023-03-14T14:10:13.008Z,0.40
2023-03-14T14:12:41.968Z,0.40
2023-03-14T14:15:11.279Z,0.43
2023-03-14T14:17:43.542Z,0.40
2023-03-14T14:20:22.827Z,0.35
2023-03-14T14:22:50.098Z,0.40
2023-03-14T14:25:17.017Z,0.45
2023-03-14T14:27:45.038Z,0.38
2023-03-14T14:30:20.629Z,0.43
2023-03-14T14:35:26.209Z,0.15
2023-03-14T14:37:53.613Z,0.30
2023-03-14T14:40:22.099Z,0.40
2023-03-14T14:42:50.117Z,0.30
2023-03-14T14:45:21.774Z,0.35
2023-03-14T14:47:56.063Z,0.57
2023-03-14T14:50:32.064Z,0.50
2023-03-14T14:52:59.634Z,0.30
2023-03-14T14:55:32.034Z,0.50
2023-03-14T14:57:58.753Z,0.40
2023-03-14T15:00:27.027Z,0.50
2023-03-14T15:02:56.168Z,0.50
2023-03-14T15:05:24.824Z,0.63
2023-03-14T15:07:51.490Z,0.68
2023-03-14T15:10:22.733Z,0.50
2023-03-14T15:12:49.455Z,0.50
2023-03-14T15:15:16.564Z,0.40
2023-03-14T15:17:43.452Z,0.60
2023-03-14T15:20:14.898Z,0.40
2023-03-14T15:22:41.934Z,0.40
2023-03-14T15:25:12.986Z,0.50
2023-03-14T15:27:48.638Z,0.40
2023-03-14T15:30:16.279Z,0.40
2023-03-14T15:32:42.818Z,0.47
2023-03-14T15:35:10.625Z,0.50
2023-03-14T15:37:37.687Z,0.50
2023-03-14T15:40:12.749Z,0.57
2023-03-14T15:42:39.402Z,0.60
2023-03-14T15:45:06.282Z,0.82
2023-03-14T15:47:33.488Z,0.80
2023-03-14T15:50:00.013Z,0.65
2023-03-14T15:52:26.524Z,0.88
2023-03-14T15:54:53.107Z,0.68
2023-03-14T15:57:19.560Z,0.30
2023-03-14T15:59:46.237Z,0.35
2023-03-14T16:02:13.130Z,0.50
2023-03-14T16:04:40.094Z,0.38
2023-03-14T16:07:06.910Z,0.40
2023-03-14T16:09:37.686Z,0.50
2023-03-14T16:12:05.918Z,0.60
2023-03-14T16:14:32.664Z,0.38
2023-03-14T16:17:00.417Z,0.20
2023-03-14T16:19:27.215Z,0.50
2023-03-14T16:21:53.774Z,0.60
2023-03-14T16:24:20.375Z,1.90
2023-03-14T16:26:48.547Z,1.30
2023-03-14T16:29:15.166Z,1.20
2023-03-14T16:31:43.156Z,1.00
2023-03-14T16:34:10.028Z,1.15
2023-03-14T16:36:36.490Z,1.00
2023-03-14T16:39:03.899Z,0.57
2023-03-14T16:41:31.674Z,0.70
2023-03-14T16:44:01.933Z,1.40
2023-03-14T16:46:30.447Z,1.80
2023-03-14T16:48:57.178Z,1.60
2023-03-14T16:51:23.891Z,1.90
2023-03-14T16:53:50.701Z,2.20
2023-03-14T16:56:17.255Z,1.27
2023-03-14T16:58:43.826Z,1.35
2023-03-14T17:01:12.155Z,1.35
2023-03-14T17:03:39.401Z,1.88
2023-03-14T17:06:06.348Z,1.63
2023-03-14T17:08:33.492Z,2.28
2023-03-14T17:10:59.944Z,2.60
2023-03-14T17:13:27.642Z,2.60
2023-03-14T17:15:57.870Z,2.80
2023-03-14T17:18:25.434Z,2.08
2023-03-14T17:20:52.744Z,1.63
2023-03-14T17:23:20.072Z,1.63
2023-03-14T17:25:47.523Z,0.95
2023-03-14T17:28:13.964Z,0.98
2023-03-14T17:30:40.651Z,1.38
2023-03-14T17:33:07.277Z,1.48
2023-03-14T17:35:34.058Z,1.50
2023-03-14T17:38:00.913Z,1.55
2023-03-14T17:40:28.123Z,1.75
2023-03-14T17:42:54.797Z,1.70
2023-03-14T17:45:21.721Z,2.05
2023-03-14T17:47:50.464Z,1.75
2023-03-14T17:50:17.546Z,2.80
2023-03-14T17:52:44.246Z,2.60
2023-03-14T17:55:12.155Z,2.30
2023-03-14T17:57:40.226Z,2.60
2023-03-14T18:00:09.156Z,2.90
2023-03-14T18:02:35.886Z,2.85
2023-03-14T18:05:03.657Z,2.72
2023-03-14T18:07:33.281Z,2.92
2023-03-14T18:09:59.820Z,4.10
2023-03-14T18:12:27.103Z,3.78
2023-03-14T18:14:53.906Z,3.78
2023-03-14T18:17:20.847Z,4.22
2023-03-14T18:19:47.513Z,3.60
2023-03-14T18:22:16.041Z,4.35
2023-03-14T18:24:42.665Z,3.92
2023-03-14T18:27:09.425Z,4.25
2023-03-14T18:29:36.826Z,4.57
2023-03-14T18:32:03.388Z,4.50
2023-03-14T18:34:33.211Z,3.90
2023-03-14T18:36:59.994Z,4.55
2023-03-14T18:39:26.838Z,3.53
2023-03-14T18:41:53.441Z,3.85
2023-03-14T18:44:21.489Z,3.40
2023-03-14T18:46:48.704Z,3.15
2023-03-14T18:49:15.445Z,2.92
2023-03-14T18:51:43.494Z,3.08
2023-03-14T18:54:11.715Z,3.03
2023-03-14T18:56:39.531Z,2.72
2023-03-14T18:59:06.603Z,2.20
2023-03-14T19:01:34.392Z,2.10
2023-03-14T19:04:01.543Z,2.40
2023-03-14T19:06:28.742Z,2.15
2023-03-14T19:08:55.363Z,1.85
2023-03-14T19:11:22.207Z,2.08
2023-03-14T19:13:49.587Z,2.20
2023-03-14T19:16:16.335Z,2.17
2023-03-14T19:18:43.169Z,2.38
2023-03-14T19:21:10.711Z,2.20
2023-03-14T19:23:39.671Z,2.28
2023-03-14T19:26:07.151Z,2.17
2023-03-14T19:28:33.680Z,2.13
2023-03-14T19:31:02.061Z,2.20
2023-03-14T19:33:29.824Z,2.78
2023-03-14T19:35:56.771Z,2.40
2023-03-14T19:38:23.318Z,2.33
2023-03-14T19:40:50.583Z,2.03
2023-03-14T19:43:17.373Z,2.42
2023-03-14T19:45:44.146Z,2.22
2023-03-14T19:48:11.453Z,2.30
2023-03-14T19:50:38.351Z,2.28
2023-03-14T19:53:04.917Z,2.45
2023-03-14T19:55:34.615Z,2.45
2023-03-14T19:58:01.775Z,3.22
2023-03-14T20:00:28.244Z,2.40
2023-03-14T20:02:54.877Z,2.22
2023-03-14T20:05:22.789Z,3.50
2023-03-14T20:07:50.059Z,2.15
2023-03-14T20:10:17.763Z,2.75
2023-03-14T20:12:47.509Z,2.50
2023-03-14T20:15:18.324Z,2.78
2023-03-14T20:17:49.368Z,2.20
2023-03-14T20:20:16.256Z,2.78
2023-03-14T20:22:43.144Z,2.38
2023-03-14T20:25:13.977Z,2.65
2023-03-14T20:27:41.393Z,2.22
2023-03-14T20:30:10.936Z,2.67
2023-03-14T20:32:37.760Z,2.47
2023-03-14T20:35:04.373Z,1.98
2023-03-14T20:37:30.923Z,2.53
2023-03-14T20:39:57.552Z,2.58
2023-03-14T20:42:26.510Z,3.15
2023-03-14T20:44:54.091Z,2.10
2023-03-14T20:47:21.126Z,3.08
2023-03-14T20:49:47.572Z,2.63
2023-03-14T20:52:14.374Z,3.03
2023-03-14T20:54:41.237Z,3.10
2023-03-14T20:57:07.750Z,2.85
2023-03-14T20:59:34.350Z,2.45
2023-03-14T21:02:00.966Z,2.50
2023-03-14T21:04:27.737Z,2.67
2023-03-14T21:06:57.385Z,3.00
2023-03-14T21:09:24.594Z,3.10
2023-03-14T21:11:51.674Z,3.20
2023-03-14T21:14:18.719Z,3.33
2023-03-14T21:16:57.088Z,3.03
2023-03-14T21:19:30.366Z,2.83
2023-03-14T21:22:00.727Z,2.63
2023-03-14T21:24:27.387Z,2.75
2023-03-14T21:26:53.934Z,2.70
2023-03-14T21:29:21.659Z,3.33
2023-03-14T21:31:48.704Z,2.30
2023-03-14T21:34:15.237Z,2.17
2023-03-14T21:36:41.951Z,2.63
2023-03-14T21:39:08.747Z,2.47
2023-03-14T21:41:35.496Z,2.92
2023-03-14T21:44:02.010Z,2.63
2023-03-14T21:46:28.591Z,2.00
2023-03-14T21:48:55.270Z,2.35
2023-03-14T21:51:21.696Z,2.72
2023-03-14T21:53:48.624Z,2.17
2023-03-14T21:56:15.183Z,2.33
2023-03-14T21:58:41.671Z,2.95
2023-03-14T22:01:10.112Z,2.20
2023-03-14T22:03:36.694Z,2.20
2023-03-14T22:06:03.244Z,2.33
2023-03-14T22:08:29.819Z,2.17
2023-03-14T22:10:56.473Z,2.58
2023-03-14T22:13:23.957Z,2.60
2023-03-14T22:15:50.793Z,3.15
2023-03-14T22:18:18.042Z,3.05
2023-03-14T22:20:44.898Z,2.88
2023-03-14T22:23:11.802Z,3.20
2023-03-14T22:25:42.511Z,2.47
2023-03-14T22:28:09.354Z,2.35
2023-03-14T22:30:36.068Z,2.83
2023-03-14T22:33:02.674Z,2.30
2023-03-14T22:35:30.479Z,2.22
2023-03-14T22:37:57.167Z,2.03
2023-03-14T22:40:23.777Z,2.20
2023-03-14T22:42:53.178Z,2.40
2023-03-14T22:45:19.682Z,2.50
2023-03-14T22:47:46.120Z,2.35
2023-03-14T22:50:12.811Z,2.03
2023-03-14T22:52:39.262Z,2.50
2023-03-14T22:55:06.150Z,2.38
2023-03-14T22:57:32.827Z,2.55
2023-03-14T22:59:59.329Z,2.47
2023-03-14T23:02:26.009Z,2.25
2023-03-14T23:04:52.486Z,2.30
2023-03-14T23:07:19.229Z,2.78
2023-03-14T23:09:45.741Z,3.10
2023-03-14T23:12:12.343Z,2.55
2023-03-14T23:14:38.795Z,2.78
2023-03-14T23:17:05.653Z,2.53
2023-03-14T23:19:32.279Z,2.10
2023-03-14T23:21:58.746Z,2.25
2023-03-14T23:24:25.276Z,1.90
2023-03-14T23:26:51.782Z,2.03
2023-03-14T23:29:18.280Z,2.28
2023-03-14T23:31:45.813Z,1.98
2023-03-14T23:34:12.288Z,2.28
2023-03-14T23:39:30.103Z,1.75
2023-03-14T23:41:56.620Z,2.42
2023-03-14T23:44:23.469Z,1.77
2023-03-14T23:46:50.054Z,1.80
2023-03-14T23:49:16.562Z,2.17
2023-03-14T23:51:43.089Z,1.85
2023-03-14T23:54:09.721Z,2.08
2023-03-14T23:56:36.378Z,1.65
2023-03-14T23:59:03.200Z,1.65
